Time;durP1;ratioP1;P1;durP2;ratioP2;P2;SDS_P1;SDS_P2;PMS_P1;PMS_P2;Temp;Humidity;BMP_temperature;BMP_pressure;BME280_temperature;BME280_humidity;BME280_pressure;Samples;Min_cycle;Max_cycle;Signal;HPM_P1;HPM_P2
2022/09/27 00:02:18;;;;;;;1.70;0.90;;;;;;;9.27;100.00;99631.66;5012297;28;20029;-96
2022/09/27 00:04:44;;;;;;;1.43;0.80;;;;;;;9.29;100.00;99628.16;5023094;28;20026;-96
2022/09/27 00:07:10;;;;;;;1.03;0.83;;;;;;;9.28;100.00;99629.88;5016993;28;20044;-96
2022/09/27 00:09:49;;;;;;;1.07;0.90;;;;;;;9.31;100.00;99640.16;5025301;28;20029;-96
2022/09/27 00:12:15;;;;;;;2.60;1.20;;;;;;;9.26;100.00;99631.66;5011021;28;20018;-96
2022/09/27 00:14:40;;;;;;;4.20;1.23;;;;;;;9.25;100.00;99637.75;5012086;28;20107;-96
2022/09/27 00:17:06;;;;;;;3.50;1.10;;;;;;;9.25;100.00;99642.91;5013177;28;20027;-96
2022/09/27 00:20:25;;;;;;;1.10;0.70;;;;;;;9.30;100.00;99654.00;4997105;28;20035;-96
2022/09/27 00:22:50;;;;;;;1.27;0.80;;;;;;;9.30;100.00;99650.53;4994359;28;20105;-96
2022/09/27 00:25:16;;;;;;;0.33;0.33;;;;;;;9.29;100.00;99654.88;5000080;28;20026;-96
2022/09/27 00:27:41;;;;;;;0.70;0.55;;;;;;;9.29;100.00;99660.06;5009661;28;20117;-96
2022/09/27 00:30:22;;;;;;;0.30;0.30;;;;;;;9.31;100.00;99667.78;5004914;28;20026;-96
2022/09/27 00:32:47;;;;;;;1.55;0.40;;;;;;;9.29;100.00;99674.78;5010822;28;20026;-96
2022/09/27 00:35:13;;;;;;;0.40;0.40;;;;;;;9.27;100.00;99665.31;5017021;28;20042;-96
2022/09/27 00:37:39;;;;;;;0.20;0.20;;;;;;;9.30;100.00;99666.09;5037778;28;20026;-96
2022/09/27 00:40:30;;;;;;;0.40;0.40;;;;;;;9.30;100.00;99661.78;5118234;23;20049;-96
2022/09/27 00:43:23;;;;;;;0.63;0.40;;;;;;;9.29;100.00;99649.72;5316426;23;20061;-96
2022/09/27 00:46:04;;;;;;;0.30;0.30;;;;;;;9.29;100.00;99647.13;5005771;28;20038;-96
2022/09/27 00:48:34;;;;;;;0.47;0.47;;;;;;;9.25;100.00;99655.88;5000890;28;20022;-96
2022/09/27 00:51:04;;;;;;;1.08;0.43;;;;;;;9.22;100.00;99658.56;5011708;28;20045;-96
2022/09/27 00:53:53;;;;;;;1.25;0.68;;;;;;;9.23;100.00;99665.44;5013623;28;20020;-96
2022/09/27 00:56:41;;;;;;;1.00;0.73;;;;;;;9.20;100.00;99662.94;5002647;28;20026;-96
2022/09/27 00:59:38;;;;;;;0.90;0.65;;;;;;;9.17;100.00;99663.88;5004387;28;20025;-96
2022/09/27 01:02:30;;;;;;;0.90;0.45;;;;;;;9.16;100.00;99664.75;4934984;28;20040;-96
2022/09/27 01:04:56;;;;;;;0.77;0.40;;;;;;;9.16;100.00;99661.31;4965734;28;20042;-96
2022/09/27 01:07:35;;;;;;;1.00;0.23;;;;;;;9.15;100.00;99668.25;5022295;28;20050;-96
2022/09/27 01:10:00;;;;;;;0.95;0.40;;;;;;;9.15;100.00;99676.00;5025127;28;20018;-96
2022/09/27 01:13:05;;;;;;;0.20;0.20;;;;;;;9.13;100.00;99675.19;5018797;28;20661;-96
2022/09/27 01:15:56;;;;;;;0.20;0.20;;;;;;;9.17;100.00;99673.38;5019787;28;20038;-96
2022/09/27 01:18:27;;;;;;;0.13;0.13;;;;;;;9.19;100.00;99684.53;5000248;28;20038;-96
2022/09/27 01:21:20;;;;;;;0.22;0.22;;;;;;;9.19;100.00;99669.84;4996258;28;20045;-96
2022/09/27 01:24:30;;;;;;;0.25;0.20;;;;;;;9.22;100.00;99661.16;4996840;28;20030;-96
2022/09/27 01:27:14;;;;;;;0.32;0.28;;;;;;;9.23;100.00;99671.44;4993470;28;20043;-96
2022/09/27 01:29:57;;;;;;;0.15;0.10;;;;;;;9.26;99.94;99678.28;4996620;28;20064;-95
2022/09/27 01:32:33;;;;;;;0.10;0.10;;;;;;;9.26;99.98;99679.13;4996553;28;20030;-96
2022/09/27 01:35:07;;;;;;;0.15;0.15;;;;;;;9.28;99.74;99686.84;4996084;28;20057;-95
2022/09/27 01:37:47;;;;;;;0.20;0.20;;;;;;;9.28;99.80;99681.66;4996916;28;20470;-95
2022/09/27 01:40:23;;;;;;;0.47;0.20;;;;;;;9.26;99.61;99676.56;4996447;28;20034;-95
2022/09/27 01:43:07;;;;;;;0.20;0.20;;;;;;;9.26;99.56;99683.44;4998319;28;20050;-94
2022/09/27 01:45:40;;;;;;;0.20;0.20;;;;;;;9.23;99.62;99686.16;4997286;28;20030;-95
2022/09/27 01:48:20;;;;;;;0.30;0.20;;;;;;;9.20;99.52;99691.41;4996915;28;20032;-96
2022/09/27 01:50:54;;;;;;;0.25;0.22;;;;;;;9.17;99.64;99697.53;4996307;28;20026;-95
2022/09/27 01:53:36;;;;;;;0.43;0.28;;;;;;;9.12;99.38;99691.63;4996582;28;20460;-95
2022/09/27 01:56:05;;;;;;;0.20;0.20;;;;;;;9.11;99.48;99702.84;4996112;28;20037;-96
2022/09/27 01:58:41;;;;;;;0.20;0.20;;;;;;;9.07;99.61;99707.28;5020285;23;20050;-96
2022/09/27 02:01:08;;;;;;;0.52;0.30;;;;;;;9.03;99.69;99695.28;5015229;28;20033;-96
2022/09/27 02:03:36;;;;;;;0.40;0.30;;;;;;;9.02;99.43;99701.34;5015595;28;20034;-96
2022/09/27 02:06:10;;;;;;;0.20;0.13;;;;;;;9.00;99.58;99692.81;5016011;28;20077;-95
2022/09/27 02:08:42;;;;;;;0.20;0.20;;;;;;;8.98;99.66;99693.72;5015705;28;20024;-96
2022/09/27 02:11:10;;;;;;;0.15;0.15;;;;;;;8.95;99.58;99698.09;5016152;28;20089;-96
2022/09/27 02:13:45;;;;;;;0.20;0.20;;;;;;;8.92;99.65;99698.19;5020205;28;20044;-96
2022/09/27 02:16:16;;;;;;;0.20;0.20;;;;;;;8.89;99.76;99697.44;5015423;28;20025;-96
2022/09/27 02:19:01;;;;;;;0.38;0.20;;;;;;;8.86;99.55;99688.00;5015591;28;20096;-96
2022/09/27 02:21:58;;;;;;;0.65;0.30;;;;;;;8.81;99.49;99695.03;4998951;28;20446;-95
2022/09/27 02:24:35;;;;;;;0.10;0.10;;;;;;;8.79;99.53;99692.47;5011953;28;20042;-96
2022/09/27 02:27:09;;;;;;;0.20;0.20;;;;;;;8.75;99.39;99696.06;5014805;28;20108;-95
2022/09/27 02:29:42;;;;;;;0.22;0.22;;;;;;;8.73;99.73;99703.00;5015529;28;20033;-93
2022/09/27 02:32:08;;;;;;;0.10;0.10;;;;;;;8.72;99.26;99703.03;4995647;28;20038;-96
2022/09/27 02:34:36;;;;;;;0.10;0.10;;;;;;;8.72;99.29;99701.28;4995169;28;20041;-95
2022/09/27 02:37:01;;;;;;;0.10;0.10;;;;;;;8.70;99.33;99703.06;4997539;28;20081;-95
2022/09/27 02:39:27;;;;;;;0.23;0.20;;;;;;;8.67;99.40;99713.47;4997005;28;20023;-95
2022/09/27 02:41:57;;;;;;;0.20;0.20;;;;;;;8.63;99.28;99717.06;4995069;28;20382;-95
2022/09/27 02:44:23;;;;;;;0.55;0.30;;;;;;;8.57;99.19;99715.47;4996448;28;20018;-96
2022/09/27 02:47:21;;;;;;;0.50;0.40;;;;;;;8.53;99.39;99720.75;4996313;28;20023;-96
2022/09/27 02:50:09;;;;;;;0.98;0.50;;;;;;;8.49;99.26;99712.25;4994917;28;20030;-95
2022/09/27 02:53:09;;;;;;;1.20;0.40;;;;;;;8.47;99.30;99707.09;4995318;28;20018;-96
2022/09/27 02:56:00;;;;;;;0.52;0.20;;;;;;;8.47;99.18;99707.09;5002386;28;20030;-96
2022/09/27 02:58:25;;;;;;;0.68;0.20;;;;;;;8.43;98.85;99705.44;4995050;28;20052;-96
2022/09/27 03:01:09;;;;;;;0.40;0.40;;;;;;;8.37;99.17;99708.16;4996045;28;20109;-96
2022/09/27 03:03:44;;;;;;;0.50;0.40;;;;;;;8.34;99.39;99696.19;4995276;28;20158;-96
2022/09/27 03:06:13;;;;;;;1.40;0.77;;;;;;;8.31;99.01;99703.16;4995511;28;20026;-94
2022/09/27 03:08:38;;;;;;;1.75;0.52;;;;;;;8.25;99.23;99700.72;4995566;28;20037;-96
2022/09/27 03:11:04;;;;;;;1.30;0.73;;;;;;;8.22;99.48;99693.06;4996439;28;20026;-96
2022/09/27 03:13:30;;;;;;;1.45;0.50;;;;;;;8.18;99.27;99698.28;4998350;28;20022;-95
2022/09/27 03:15:55;;;;;;;0.82;0.50;;;;;;;8.13;99.45;99700.13;4996871;28;20022;-96
2022/09/27 03:18:42;;;;;;;2.60;0.85;;;;;;;8.08;99.40;99690.78;4995240;28;20026;-96
2022/09/27 03:21:07;;;;;;;1.85;0.70;;;;;;;8.06;99.63;99693.41;4999624;28;20037;-94
2022/09/27 03:24:24;;;;;;;1.50;0.53;;;;;;;8.04;99.26;99700.34;5014605;28;20018;-95
2022/09/27 03:26:49;;;;;;;1.73;0.60;;;;;;;8.02;99.76;99702.09;5014229;28;20125;-95
2022/09/27 03:29:15;;;;;;;1.20;0.70;;;;;;;8.02;99.08;99704.69;5014651;28;20076;-96
2022/09/27 03:31:47;;;;;;;1.00;0.63;;;;;;;8.01;99.73;99700.41;5015113;28;20076;-96
2022/09/27 03:34:12;;;;;;;2.67;0.80;;;;;;;8.00;100.00;99707.31;5016892;28;20276;-96
2022/09/27 03:36:38;;;;;;;1.90;0.93;;;;;;;8.00;99.92;99706.44;5015346;28;20435;-95
2022/09/27 03:39:15;;;;;;;2.90;0.95;;;;;;;7.99;100.00;99707.34;5015403;28;20029;-95
2022/09/27 03:41:41;;;;;;;2.17;0.70;;;;;;;7.99;100.00;99717.69;5015563;28;20471;-96
2022/09/27 03:44:07;;;;;;;2.80;0.63;;;;;;;8.00;100.00;99711.63;5014788;28;20109;-95
2022/09/27 03:46:51;;;;;;;0.57;0.57;;;;;;;8.02;100.00;99725.34;5014296;28;20451;-93
2022/09/27 03:49:17;;;;;;;2.58;0.73;;;;;;;8.00;100.00;99729.69;5014913;28;20033;-96
2022/09/27 03:51:42;;;;;;;0.93;0.70;;;;;;;8.01;100.00;99736.56;5009276;28;20077;-96
2022/09/27 03:54:19;;;;;;;2.22;0.70;;;;;;;8.01;100.00;99747.78;4994599;28;20029;-96
2022/09/27 03:56:45;;;;;;;1.65;0.70;;;;;;;8.03;100.00;99760.66;4994223;28;20030;-95
2022/09/27 03:59:10;;;;;;;1.50;0.60;;;;;;;8.04;100.00;99764.94;4997153;28;20034;-95
2022/09/27 04:01:57;;;;;;;1.60;0.55;;;;;;;8.06;100.00;99768.34;4999380;28;20459;-96
2022/09/27 04:04:24;;;;;;;1.40;0.68;;;;;;;8.06;100.00;99770.94;5129480;23;20046;-96
2022/09/27 04:06:49;;;;;;;1.73;0.47;;;;;;;8.05;100.00;99761.47;5028179;28;20030;-96
2022/09/27 04:09:27;;;;;;;1.00;0.83;;;;;;;8.08;100.00;99763.13;5026105;28;20109;-96
2022/09/27 04:11:53;;;;;;;1.88;0.60;;;;;;;8.13;100.00;99767.31;5021007;28;20410;-96
2022/09/27 04:14:19;;;;;;;1.45;0.60;;;;;;;8.12;100.00;99763.03;5022929;28;20010;-96
2022/09/27 04:19:25;;;;;;;0.70;0.40;;;;;;;8.15;100.00;99747.44;5146286;23;20503;-95
2022/09/27 04:21:51;;;;;;;0.35;0.32;;;;;;;8.19;100.00;99749.09;5017076;28;20082;-94
2022/09/27 04:24:16;;;;;;;0.20;0.20;;;;;;;8.19;100.00;99738.75;5017906;28;20041;-93
2022/09/27 04:27:00;;;;;;;0.47;0.45;;;;;;;8.21;100.00;99728.38;5017516;28;20113;-95
2022/09/27 04:29:26;;;;;;;0.25;0.25;;;;;;;8.18;100.00;99721.53;5017420;28;20037;-96
2022/09/27 04:32:03;;;;;;;0.30;0.30;;;;;;;8.18;100.00;99721.53;5017553;28;20052;-95
2022/09/27 04:37:12;;;;;;;1.55;0.10;;;;;;;8.22;100.00;99726.66;5017536;28;20096;-96
2022/09/27 04:39:38;;;;;;;0.77;0.23;;;;;;;8.21;100.00;99730.13;5017116;28;20474;-96
2022/09/27 04:42:04;;;;;;;0.10;0.10;;;;;;;8.22;100.00;99730.06;5026301;28;20032;-94
2022/09/27 04:44:29;;;;;;;0.10;0.10;;;;;;;8.19;100.00;99715.50;5026489;28;20042;-96
2022/09/27 04:47:10;;;;;;;0.68;0.20;;;;;;;8.17;100.00;99717.25;5025718;28;20033;-96
2022/09/27 04:49:35;;;;;;;1.25;0.25;;;;;;;8.14;99.90;99719.91;5021939;28;20029;-96
2022/09/27 04:52:10;;;;;;;0.23;0.23;;;;;;;8.14;100.00;99732.00;5018712;28;20370;-96
2022/09/27 04:54:35;;;;;;;0.20;0.10;;;;;;;8.13;100.00;99732.88;5023241;28;20018;-96
2022/09/27 04:57:01;;;;;;;0.30;0.30;;;;;;;8.11;100.00;99739.81;5022982;28;20029;-96
2022/09/27 04:59:46;;;;;;;1.10;0.27;;;;;;;8.10;99.99;99753.59;5021359;28;20094;-96
2022/09/27 05:02:27;;;;;;;0.50;0.20;;;;;;;8.07;100.00;99754.53;5031183;28;20040;-96
2022/09/27 05:04:58;;;;;;;0.73;0.40;;;;;;;8.07;100.00;99753.66;5023811;28;20615;-96
2022/09/27 05:07:29;;;;;;;2.22;0.57;;;;;;;8.01;100.00;99757.25;5031009;28;20033;-96
2022/09/27 05:09:55;;;;;;;0.30;0.30;;;;;;;7.98;100.00;99770.25;5017152;28;20025;-96
2022/09/27 05:12:33;;;;;;;2.10;0.50;;;;;;;8.00;100.00;99771.03;5020178;28;20026;-96
2022/09/27 05:14:59;;;;;;;0.57;0.30;;;;;;;7.98;100.00;99778.00;5024240;28;20018;-96
2022/09/27 05:17:24;;;;;;;0.80;0.50;;;;;;;7.95;100.00;99775.47;5027833;28;20032;-96
2022/09/27 05:19:50;;;;;;;0.30;0.30;;;;;;;7.92;100.00;99776.41;5024286;28;20038;-96
2022/09/27 05:22:29;;;;;;;0.55;0.10;;;;;;;7.91;100.00;99774.69;5012596;28;20037;-96
2022/09/27 05:24:54;;;;;;;0.52;0.40;;;;;;;7.91;100.00;99772.13;4997037;28;20022;-95
2022/09/27 05:27:38;;;;;;;0.30;0.30;;;;;;;7.93;100.00;99772.94;4996727;28;20029;-94
2022/09/27 05:30:05;;;;;;;0.30;0.30;;;;;;;7.95;100.00;99771.16;4996925;28;20022;-94
2022/09/27 05:32:30;;;;;;;0.30;0.30;;;;;;;7.97;100.00;99771.97;4997082;28;20026;-94
2022/09/27 05:35:08;;;;;;;1.30;0.20;;;;;;;7.96;100.00;99775.44;4986652;28;20045;-95
2022/09/27 05:37:34;;;;;;;0.10;0.10;;;;;;;7.97;100.00;99769.38;4997594;28;20475;-95
2022/09/27 05:39:59;;;;;;;0.30;0.10;;;;;;;8.00;100.00;99777.06;4999900;28;20033;-96
2022/09/27 05:42:25;;;;;;;0.30;0.30;;;;;;;8.01;100.00;99775.31;4997630;28;20053;-95
2022/09/27 05:45:08;;;;;;;1.02;0.40;;;;;;;8.00;100.00;99766.75;5003068;28;20450;-95
2022/09/27 05:47:34;;;;;;;0.20;0.20;;;;;;;8.02;100.00;99766.69;5008735;28;20113;-95
2022/09/27 05:49:59;;;;;;;0.30;0.30;;;;;;;8.03;100.00;99768.41;5016822;28;20042;-94
2022/09/27 05:52:25;;;;;;;0.73;0.20;;;;;;;8.02;100.00;99770.16;5017761;28;20014;-95
2022/09/27 05:55:09;;;;;;;0.10;0.10;;;;;;;8.07;100.00;99766.59;5018028;28;20463;-95
2022/09/27 05:57:35;;;;;;;0.60;0.20;;;;;;;8.04;100.00;99767.53;5020406;28;20014;-94
2022/09/27 06:00:00;;;;;;;0.23;0.23;;;;;;;8.03;100.00;99760.66;5015943;28;20029;-92
2022/09/27 06:02:43;;;;;;;0.03;0.03;;;;;;;8.07;99.81;99753.66;5016707;28;20060;-95
2022/09/27 06:05:08;;;;;;;0.15;0.15;;;;;;;8.07;100.00;99770.03;5004291;28;20038;-95
2022/09/27 06:07:33;;;;;;;1.17;0.40;;;;;;;8.07;100.00;99764.88;4998049;28;20026;-96
2022/09/27 06:09:59;;;;;;;0.75;0.20;;;;;;;8.02;100.00;99754.66;5000451;28;20037;-96
2022/09/27 06:12:37;;;;;;;0.73;0.30;;;;;;;8.03;100.00;99758.06;5000331;28;20037;-96
2022/09/27 06:15:02;;;;;;;0.60;0.40;;;;;;;8.03;100.00;99758.06;4995992;28;20026;-91
2022/09/27 06:17:28;;;;;;;1.20;0.67;;;;;;;8.00;100.00;99751.25;4995495;28;20026;-91
2022/09/27 06:19:53;;;;;;;1.63;0.73;;;;;;;7.97;100.00;99758.22;4995344;28;20034;-89
2022/09/27 06:22:25;;;;;;;0.70;0.70;;;;;;;7.91;100.00;99753.16;4995753;28;20076;-94
2022/09/27 06:24:51;;;;;;;0.50;0.50;;;;;;;7.91;100.00;99768.66;4996504;28;20026;-94
2022/09/27 06:27:26;;;;;;;0.87;0.50;;;;;;;7.89;100.00;99768.72;4995866;28;20056;-90
2022/09/27 06:29:52;;;;;;;0.30;0.30;;;;;;;7.90;100.00;99765.25;4994987;28;20026;-91
2022/09/27 06:32:30;;;;;;;0.93;0.40;;;;;;;7.89;100.00;99772.13;4995443;28;20102;-90
2022/09/27 06:34:56;;;;;;;0.50;0.50;;;;;;;7.88;100.00;99772.16;4995250;28;20022;-88
2022/09/27 06:37:25;;;;;;;0.87;0.50;;;;;;;7.89;100.00;99772.13;4994955;28;20041;-90
2022/09/27 06:40:09;;;;;;;0.80;0.70;;;;;;;7.87;100.00;99778.22;4994621;28;20041;-90
2022/09/27 06:42:34;;;;;;;0.55;0.55;;;;;;;7.89;100.00;99785.03;4994916;28;20130;-89
2022/09/27 06:45:17;;;;;;;0.50;0.40;;;;;;;7.91;100.00;99774.69;4995645;28;20076;-95
2022/09/27 06:47:42;;;;;;;0.50;0.50;;;;;;;7.91;100.00;99763.50;4999097;28;20054;-94
2022/09/27 06:50:08;;;;;;;1.00;0.60;;;;;;;7.91;100.00;99761.78;5001322;28;20030;-96
2022/09/27 06:52:35;;;;;;;0.70;0.70;;;;;;;7.90;100.00;99762.66;4997209;28;20054;-95
2022/09/27 06:55:16;;;;;;;1.00;1.00;;;;;;;7.85;100.00;99764.47;4995667;28;20033;-93
2022/09/27 07:00:26;;;;;;;1.10;1.00;;;;;;;7.85;100.00;99775.69;4997673;28;20042;-96
2022/09/27 07:02:53;;;;;;;1.20;1.10;;;;;;;7.86;100.00;99774.81;4995964;28;20026;-96
2022/09/27 07:05:19;;;;;;;;;;;;;;;7.86;100.00;99774.81;4999100;28;20015;-95
2022/09/27 07:07:45;;;;;;;1.60;1.50;;;;;;;7.89;100.00;99766.97;4997540;28;19909;-94
2022/09/27 07:10:10;;;;;;;2.30;1.15;;;;;;;7.92;100.00;99771.22;4994744;28;20033;-94
2022/09/27 07:12:36;;;;;;;1.40;1.30;;;;;;;7.94;100.00;99764.28;5000602;28;20050;-94
2022/09/27 07:15:02;;;;;;;1.80;1.30;;;;;;;7.99;100.00;99777.97;4995140;28;20029;-95
2022/09/27 07:17:28;;;;;;;0.90;0.90;;;;;;;8.04;100.00;99783.03;4994827;28;20034;-91
2022/09/27 07:19:54;;;;;;;1.53;1.20;;;;;;;8.10;100.00;99785.50;4994628;28;20030;-94
2022/09/27 07:22:19;;;;;;;1.37;1.27;;;;;;;8.13;100.00;99790.56;4994436;28;20023;-94
2022/09/27 07:24:45;;;;;;;1.27;1.17;;;;;;;8.17;100.00;99786.19;4994761;28;20030;-93
2022/09/27 07:27:11;;;;;;;1.83;1.20;;;;;;;8.23;100.00;99795.53;4994145;28;20026;-94
2022/09/27 07:29:36;;;;;;;1.50;1.17;;;;;;;8.25;100.00;99788.59;4995685;28;20022;-96
2022/09/27 07:32:03;;;;;;;1.88;1.30;;;;;;;8.24;100.00;99790.34;4995330;28;20030;-95
2022/09/27 07:34:28;;;;;;;1.50;1.40;;;;;;;8.24;100.00;99792.94;4999208;28;20029;-96
2022/09/27 07:37:02;;;;;;;1.47;1.33;;;;;;;8.31;100.00;99796.22;5005160;28;20058;-96
2022/09/27 07:39:41;;;;;;;1.77;1.35;;;;;;;8.34;100.00;99796.13;5007103;28;20011;-96
2022/09/27 07:42:07;;;;;;;1.42;1.33;;;;;;;8.39;100.00;99801.22;5003402;28;20042;-96
2022/09/27 07:44:32;;;;;;;1.50;1.40;;;;;;;8.41;100.00;99802.88;5030251;28;20057;-96
2022/09/27 07:49:38;;;;;;;1.30;1.20;;;;;;;8.52;100.00;99805.22;5124295;23;20042;-96
2022/09/27 07:52:04;;;;;;;2.67;1.50;;;;;;;8.52;100.00;99801.81;5032622;28;20013;-96
2022/09/27 07:54:32;;;;;;;1.93;1.60;;;;;;;8.56;100.00;99813.75;5029075;28;20017;-96
2022/09/27 07:57:14;;;;;;;4.18;2.10;;;;;;;8.55;100.00;99812.09;5032836;28;20026;-96
2022/09/27 08:02:27;;;;;;;2.70;1.58;;;;;;;8.60;100.00;99821.44;5034180;23;20053;-96
2022/09/27 08:07:20;;;;;;;2.00;1.80;;;;;;;8.62;100.00;99823.97;5324412;23;20058;-96
2022/09/27 08:09:46;;;;;;;2.17;2.00;;;;;;;8.61;100.00;99817.09;5025604;28;20414;-96
2022/09/27 08:17:21;;;;;;;3.97;2.58;;;;;;;8.67;100.00;99824.72;5049722;23;20066;-96
2022/09/27 08:19:48;;;;;;;2.50;2.30;;;;;;;8.74;100.00;99822.81;5007710;28;20053;-96
2022/09/27 08:24:49;;;;;;;2.78;2.20;;;;;;;8.78;100.00;99814.13;5192689;23;20055;-96
2022/09/27 08:27:15;;;;;;;2.63;2.30;;;;;;;8.84;100.00;99820.88;5009301;28;20091;-96
2022/09/27 08:29:41;;;;;;;2.20;2.00;;;;;;;8.88;100.00;99819.94;5009248;28;20086;-96
2022/09/27 08:32:10;;;;;;;4.60;2.80;;;;;;;8.90;100.00;99815.53;5009969;28;20026;-96
2022/09/27 08:34:45;;;;;;;5.78;3.40;;;;;;;8.91;100.00;99819.81;5009761;28;20049;-96
2022/09/27 08:37:11;;;;;;;5.25;3.08;;;;;;;8.90;100.00;99816.41;5030114;28;20025;-96
2022/09/27 08:39:36;;;;;;;3.83;3.10;;;;;;;8.92;100.00;99819.81;5022837;28;20029;-96
2022/09/27 08:42:30;;;;;;;4.93;3.40;;;;;;;8.94;100.00;99809.41;5021312;28;20463;-96
2022/09/27 08:45:24;;;;;;;6.65;3.60;;;;;;;9.00;100.00;99811.00;5019244;28;20077;-96
2022/09/27 08:48:04;;;;;;;6.22;4.38;;;;;;;9.02;100.00;99817.00;5026951;28;20029;-96
2022/09/27 08:50:41;;;;;;;5.60;3.85;;;;;;;9.03;100.00;99819.53;5035926;28;20018;-96
2022/09/27 08:58:38;;;;;;;5.07;3.78;;;;;;;9.12;100.00;99823.63;5035791;28;20046;-96
2022/09/27 09:01:11;;;;;;;5.07;3.72;;;;;;;9.16;100.00;99837.34;5039553;28;20041;-96
2022/09/27 09:09:02;;;;;;;7.72;4.90;;;;;;;9.18;100.00;99851.94;5615943;23;20092;-96
2022/09/27 09:15:20;;;;;;;7.18;4.80;;;;;;;9.11;100.00;99852.97;5018528;28;20040;-96
2022/09/27 09:18:17;;;;;;;5.45;3.70;;;;;;;9.16;100.00;99860.63;4922792;29;20476;-96
2022/09/27 09:21:09;;;;;;;4.57;3.42;;;;;;;9.20;100.00;99860.50;4923542;29;20028;-96
2022/09/27 09:23:35;;;;;;;3.63;3.00;;;;;;;9.22;100.00;99873.44;4934298;29;20036;-96
2022/09/27 09:26:31;;;;;;;3.10;2.70;;;;;;;9.20;100.00;99855.34;4930343;29;20063;-96
2022/09/27 09:29:21;;;;;;;;;;;;;;;9.22;100.00;99865.66;4923091;29;20099;-96
2022/09/27 09:32:26;;;;;;;4.57;3.40;;;;;;;9.23;100.00;99869.97;4910016;29;20308;-96
2022/09/27 09:35:47;;;;;;;8.05;5.05;;;;;;;9.19;100.00;99860.56;4908803;29;20035;-96
2022/09/27 09:38:24;;;;;;;7.65;4.90;;;;;;;9.14;100.00;99850.31;4918600;29;20127;-95
2022/09/27 09:41:08;;;;;;;6.65;4.32;;;;;;;9.16;100.00;99850.28;4919471;29;20035;-95
2022/09/27 09:43:58;;;;;;;4.80;3.20;;;;;;;9.18;100.00;99845.91;4919408;29;20509;-96
2022/09/27 09:46:50;;;;;;;5.18;3.30;;;;;;;9.22;100.00;99855.31;5017190;28;20469;-96
2022/09/27 09:49:27;;;;;;;3.45;2.83;;;;;;;9.21;100.00;99853.63;5018015;28;20462;-95
2022/09/27 09:52:12;;;;;;;4.93;3.35;;;;;;;9.20;100.00;99844.97;5016943;28;20036;-93
2022/09/27 09:55:06;;;;;;;5.30;4.10;;;;;;;9.17;100.00;99852.84;5000147;28;20068;-94
2022/09/27 09:57:58;;;;;;;6.32;4.07;;;;;;;9.13;100.00;99856.38;4997158;28;20026;-95
2022/09/27 10:00:24;;;;;;;8.75;5.35;;;;;;;9.10;100.00;99848.69;4996334;28;20133;-96
2022/09/27 10:03:04;;;;;;;9.07;5.30;;;;;;;9.09;100.00;99855.63;4996669;28;20030;-96
2022/09/27 10:05:30;;;;;;;9.23;5.45;;;;;;;9.14;100.00;99854.63;4996549;28;20467;-95
2022/09/27 10:08:23;;;;;;;7.50;4.67;;;;;;;9.17;100.00;99857.16;4996443;28;20057;-96
2022/09/27 10:10:48;;;;;;;6.70;4.40;;;;;;;9.17;100.00;99857.16;4957568;28;20035;-96
2022/09/27 10:13:16;;;;;;;5.93;4.20;;;;;;;9.12;100.00;99855.53;4962033;28;20101;-96
2022/09/27 10:16:01;;;;;;;5.30;3.70;;;;;;;9.09;100.00;99858.22;4963895;28;20027;-96
2022/09/27 10:18:37;;;;;;;3.25;2.90;;;;;;;9.11;100.00;99855.56;5018614;23;20057;-96
2022/09/27 10:21:10;;;;;;;3.00;2.63;;;;;;;9.15;100.00;99857.22;5027973;28;20021;-95
2022/09/27 10:24:07;;;;;;;4.22;2.40;;;;;;;9.16;100.00;99861.50;5022290;28;20444;-96
2022/09/27 10:26:34;;;;;;;2.78;2.30;;;;;;;9.14;100.00;99865.00;5016934;28;20127;-95
2022/09/27 10:29:15;;;;;;;3.35;2.28;;;;;;;9.14;100.00;99868.44;5018882;28;20025;-95
2022/09/27 10:31:46;;;;;;;2.10;1.90;;;;;;;9.12;100.00;99865.88;5019243;28;20028;-95
2022/09/27 10:34:33;;;;;;;1.88;1.67;;;;;;;9.16;100.00;99868.41;5019326;28;20033;-96
2022/09/27 10:37:16;;;;;;;1.85;1.40;;;;;;;9.17;99.80;99865.78;5025347;28;20021;-96
2022/09/27 10:39:46;;;;;;;1.45;1.35;;;;;;;9.22;99.74;99870.84;5030982;28;20117;-96
2022/09/27 10:42:34;;;;;;;1.45;1.35;;;;;;;9.29;99.96;99864.63;5032602;28;20084;-96
2022/09/27 10:45:30;;;;;;;2.13;1.50;;;;;;;9.38;99.53;99873.88;5033953;28;20033;-96
2022/09/27 10:48:00;;;;;;;1.40;1.25;;;;;;;9.39;99.41;99873.84;5011967;28;20045;-96
2022/09/27 10:50:28;;;;;;;0.70;0.70;;;;;;;9.39;98.96;99871.25;5029200;28;20037;-96
2022/09/27 10:53:11;;;;;;;0.93;0.90;;;;;;;9.43;98.90;99880.66;5031980;28;20024;-96
2022/09/27 10:55:39;;;;;;;1.58;1.17;;;;;;;9.38;97.93;99877.31;5023954;28;20025;-96
2022/09/27 10:58:16;;;;;;;0.98;0.98;;;;;;;9.42;98.42;99873.78;5026390;28;20026;-96
2022/09/27 11:00:42;;;;;;;0.70;0.70;;;;;;;9.47;98.56;99870.19;5025386;28;20030;-96
2022/09/27 11:03:15;;;;;;;0.60;0.60;;;;;;;9.50;98.43;99875.31;5025975;28;20018;-95
2022/09/27 11:05:42;;;;;;;0.40;0.40;;;;;;;9.53;98.73;99870.88;5021348;28;20021;-96
2022/09/27 11:08:30;;;;;;;0.68;0.57;;;;;;;9.50;97.11;99867.53;5020281;28;20053;-96
2022/09/27 11:11:27;;;;;;;0.50;0.50;;;;;;;9.49;98.05;99871.88;5022289;28;20034;-96
2022/09/27 11:14:15;;;;;;;0.40;0.40;;;;;;;9.52;97.99;99876.13;5019267;28;20021;-96
2022/09/27 11:17:08;;;;;;;0.65;0.30;;;;;;;9.50;97.55;99870.13;5025674;28;20022;-96
2022/09/27 11:19:52;;;;;;;0.60;0.40;;;;;;;9.55;97.76;99873.44;5023842;28;20053;-96
2022/09/27 11:22:49;;;;;;;0.32;0.32;;;;;;;9.58;97.16;99868.16;5033210;28;20017;-96
2022/09/27 11:25:43;;;;;;;0.40;0.38;;;;;;;9.67;97.55;99864.47;5019826;28;20042;-96
2022/09/27 11:28:14;;;;;;;0.50;0.30;;;;;;;9.76;97.22;99855.63;5005052;28;20339;-96
2022/09/27 11:30:58;;;;;;;0.15;0.15;;;;;;;9.76;96.01;99846.09;5011964;28;20054;-96
2022/09/27 11:33:33;;;;;;;0.40;0.40;;;;;;;9.77;96.32;99846.97;5013594;28;20049;-96
2022/09/27 11:36:27;;;;;;;0.43;0.43;;;;;;;9.78;96.38;99848.66;5016227;28;20026;-96
2022/09/27 11:39:16;;;;;;;0.47;0.47;;;;;;;9.85;96.18;99847.59;5017558;28;20034;-96
2022/09/27 11:47:45;;;;;;;0.60;0.30;;;;;;;10.11;96.44;99841.63;4996225;28;20054;-96
2022/09/27 11:50:32;;;;;;;0.40;0.25;;;;;;;10.20;96.26;99845.72;4929321;29;20036;-93
2022/09/27 12:01:42;;;;;;;0.10;0.10;;;;;;;10.43;93.48;99845.03;5023647;23;20062;-96
2022/09/27 12:04:45;;;;;;;0.30;0.30;;;;;;;10.50;94.73;99843.09;4996475;28;20041;-95
2022/09/27 12:07:42;;;;;;;0.25;0.25;;;;;;;10.56;95.20;99845.53;4994337;28;20030;-94
2022/09/27 12:10:12;;;;;;;0.57;0.30;;;;;;;10.61;92.43;99845.38;4997199;28;20022;-96
2022/09/27 12:12:43;;;;;;;1.08;0.38;;;;;;;10.68;93.89;99841.69;4995010;28;20030;-94
2022/09/27 12:15:41;;;;;;;0.95;0.30;;;;;;;10.82;93.66;99838.63;4994638;28;20394;-94
2022/09/27 12:18:19;;;;;;;0.20;0.20;;;;;;;10.90;93.49;99841.84;4979624;28;20062;-95
2022/09/27 12:20:45;;;;;;;0.52;0.40;;;;;;;10.94;93.26;99837.41;4979478;28;20057;-96
2022/09/27 12:23:25;;;;;;;0.40;0.40;;;;;;;11.02;94.01;99843.19;4985727;28;20472;-95
2022/09/27 12:25:57;;;;;;;0.20;0.17;;;;;;;11.05;92.87;99842.22;5000629;28;20023;-95
2022/09/27 12:28:44;;;;;;;1.00;0.45;;;;;;;10.99;91.10;99840.69;5000504;28;20056;-95
2022/09/27 12:31:28;;;;;;;0.50;0.10;;;;;;;10.98;92.88;99846.75;5009062;28;20065;-94
2022/09/27 12:34:01;;;;;;;0.68;0.30;;;;;;;10.96;89.95;99840.81;5017604;28;20114;-95
2022/09/27 12:36:34;;;;;;;1.15;0.60;;;;;;;10.88;88.53;99832.41;5019429;28;20041;-94
2022/09/27 12:39:10;;;;;;;0.50;0.50;;;;;;;10.86;88.80;99837.66;5019373;28;20463;-92
2022/09/27 12:41:42;;;;;;;1.08;0.50;;;;;;;10.84;88.64;99836.84;5000728;28;20036;-96
2022/09/27 12:44:10;;;;;;;0.70;0.50;;;;;;;10.86;89.28;99832.47;5000392;28;20031;-94
2022/09/27 12:47:13;;;;;;;0.47;0.47;;;;;;;10.86;89.59;99836.81;5012906;28;20030;-94
2022/09/27 12:49:44;;;;;;;0.60;0.60;;;;;;;10.78;86.55;99826.69;5017514;28;20076;-95
2022/09/27 12:52:24;;;;;;;0.65;0.50;;;;;;;10.74;87.70;99832.84;5021226;28;20179;-96
2022/09/27 12:55:25;;;;;;;0.20;0.20;;;;;;;10.77;90.17;99828.41;5007603;28;20026;-96
2022/09/27 12:58:21;;;;;;;0.50;0.50;;;;;;;10.84;85.60;99830.81;5002969;28;20027;-96
2022/09/27 13:01:22;;;;;;;0.75;0.68;;;;;;;10.82;89.42;99823.06;5001289;28;20046;-95
2022/09/27 13:04:11;;;;;;;0.30;0.30;;;;;;;10.93;90.50;99820.97;4971973;28;20030;-96
2022/09/27 13:06:55;;;;;;;0.52;0.40;;;;;;;11.06;90.67;99817.94;5018684;28;20026;-96
2022/09/27 13:09:45;;;;;;;0.50;0.50;;;;;;;11.16;90.97;99813.31;5017465;28;20021;-95